Aérodrome :







RETROUVEZ-NOUS SUR...

 
LOGIN :

S'inscrire | Disclaimer

   EN    FR    IT 

 









Légende :    VFR   VFR Marginal   IFR   IFR Intensif   IFR Très Intensif
Visi : 
Plafond : 
>= 8 km
>= 3000ft
5 à 8 km
1000 à 3000 ft
1500m à 5 km
500 à 1000 ft
800 à 1500m
200 à 500 ft
< 800m
< 200 ft
Symboles :   Orages  Brouillard  Fortes neiges  Fortes précipitations  Vent > 20 kt







- Altitude de l'aérodrome : 49 ft


KOWD - Norwood Memorial

DERNIER METAR :
  • 222210Z 01009G18KT 1 1/4SM RA BR SCT009 BKN012 OVC017 13/11 A2999 RMK AO2 P0006 T01280106

METARs EXPIRÉS :
  • 222153Z 03010G16KT 1 3/4SM RA BR BKN008 OVC014 13/11 A3000 RMK AO2 SLP158 P0019 T01280106
  • 222148Z 03008G17KT 350V060 1 1/2SM RA OVC008 13/11 A3000 RMK AO2 P0017
  • 222123Z 03007G14KT 2 1/2SM RA BR OVC008 13/11 A3000 RMK AO2 P0006 T01330111
  • 222104Z 01008KT 2 1/2SM -RA BR BKN008 OVC012 13/11 A2999 RMK AO2 P0002 T01330111
  • 222053Z 02006KT 1 3/4SM -RA BR OVC006 13/11 A3000 RMK AO2 SLP158 P0030 60071 T01330111 56007
  • 222032Z 01003KT 3/4SM +RA BR OVC006 13/11 A3000 RMK AO2 P0022 T01280111
  • 221953Z 02004KT 1 1/2SM -RA BKN006 OVC010 13/10 A3000 RMK AO2 SLP157 P0011 T01280100
  • 221938Z 35011G17KT 2SM -RA BR OVC008 12/10 A2999 RMK AO2 CIG 006V012 P0009 T01220100
  • 221925Z 35010G16KT 3SM -RA OVC008 13/10 A3000 RMK AO2 CIG 006V010 P0007 T01280100

TAF N/A
FIR KZBW / Amérique du Nord



MET'MAP, la Météo Aéronautique d'un coup d'oeil ! - Copyright ORBIFLY Décembre 2007 - Disclaimer

ORBIFLY MET'MAP TEAM :

Programmation & Développement : Alexandra Zaïnal
Conception & Développement : Baudouin d'Aumeries
Co-Programmation & Développement : Marc-Olivier Méhu
Soutien technique & logistique : Manuel Goepfert

Contact : metmap@orbifly.com




SOURCES & CREDITS :

   NOAA